Time;durP1;ratioP1;P1;durP2;ratioP2;P2;SDS_P1;SDS_P2;PMS_P1;PMS_P2;Temp;Humidity;BMP_temperature;BMP_pressure;BME280_temperature;BME280_humidity;BME280_pressure;Samples;Min_cycle;Max_cycle;Signal;HPM_P1;HPM_P2
2021/10/18 00:02:03;;;;;;;0.20;0.20;;;3.20;42.40;;;;;;4837268;28;20591;-85
2021/10/18 00:04:26;;;;;;;0.23;0.23;;;3.90;42.80;;;;;;4837787;28;20211;-87
2021/10/18 00:06:48;;;;;;;0.20;0.20;;;2.50;42.40;;;;;;4839295;28;20186;-84
2021/10/18 00:09:12;;;;;;;0.30;0.30;;;3.80;43.00;;;;;;4821339;28;20226;-85
2021/10/18 00:11:34;;;;;;;0.30;0.30;;;2.90;42.60;;;;;;4839381;28;20236;-86
2021/10/18 00:13:57;;;;;;;0.33;0.33;;;;;;;;;;4838840;28;20203;-83
2021/10/18 00:16:21;;;;;;;0.60;0.60;;;2.60;42.40;;;;;;4821013;28;20630;-86
2021/10/18 00:18:44;;;;;;;0.40;0.40;;;2.80;42.40;;;;;;4821551;28;20657;-86
2021/10/18 00:21:06;;;;;;;1.03;0.97;;;2.70;42.40;;;;;;4838087;28;20233;-80
2021/10/18 00:23:29;;;;;;;0.60;0.60;;;;;;;;;;4812266;28;20223;-80
2021/10/18 00:25:53;;;;;;;0.50;0.50;;;2.70;42.30;;;;;;4820062;28;20199;-81
2021/10/18 00:28:16;;;;;;;0.60;0.60;;;2.70;42.30;;;;;;4820181;28;20254;-82
2021/10/18 00:30:38;;;;;;;0.50;0.50;;;2.70;42.90;;;;;;4837594;28;20253;-80
2021/10/18 00:33:02;;;;;;;0.77;0.77;;;2.70;42.30;;;;;;4837180;28;20758;-80
2021/10/18 00:35:24;;;;;;;0.40;0.40;;;2.80;42.70;;;;;;4836703;28;20187;-81
2021/10/18 00:37:47;;;;;;;0.53;0.53;;;2.70;42.40;;;;;;4837627;28;20190;-80
2021/10/18 00:40:11;;;;;;;0.60;0.60;;;2.70;42.30;;;;;;4819333;28;20199;-80
2021/10/18 00:42:34;;;;;;;0.40;0.40;;;2.80;42.90;;;;;;4803855;28;20195;-81
2021/10/18 00:44:57;;;;;;;0.60;0.60;;;;;;;;;;4820009;28;20262;-80
2021/10/18 00:47:21;;;;;;;0.40;0.40;;;2.70;42.30;;;;;;4819793;28;20211;-80
2021/10/18 00:49:45;;;;;;;0.40;0.40;;;2.70;42.30;;;;;;4837330;28;20191;-80
2021/10/18 00:52:08;;;;;;;0.50;0.50;;;2.50;42.20;;;;;;4837134;28;20191;-80
2021/10/18 00:54:31;;;;;;;0.37;0.37;;;;;;;;;;4830149;28;20774;-79
2021/10/18 00:56:53;;;;;;;0.20;0.20;;;;;;;;;;4819429;28;20735;-81
2021/10/18 00:59:16;;;;;;;0.40;0.40;;;2.80;42.70;;;;;;4803442;28;20249;-80
2021/10/18 01:01:39;;;;;;;0.37;0.37;;;;;;;;;;4833885;28;20195;-80
2021/10/18 01:04:04;;;;;;;0.40;0.40;;;3.00;42.30;;;;;;4819989;28;20195;-82
2021/10/18 01:06:28;;;;;;;0.30;0.30;;;2.90;42.70;;;;;;4838085;28;20256;-80
2021/10/18 01:08:50;;;;;;;0.40;0.40;;;2.80;42.20;;;;;;4823207;28;20215;-80
2021/10/18 01:11:13;;;;;;;0.37;0.37;;;;;;;;;;4840651;28;20183;-79
2021/10/18 01:13:36;;;;;;;0.23;0.23;;;3.30;41.40;;;;;;4823794;28;20258;-80
2021/10/18 01:16:01;;;;;;;0.50;0.50;;;3.40;41.30;;;;;;4806690;28;20199;-81
2021/10/18 01:18:23;;;;;;;0.30;0.30;;;3.30;41.40;;;;;;4807516;28;20265;-79
2021/10/18 01:20:47;;;;;;;0.20;0.20;;;3.40;41.90;;;;;;4839373;28;20657;-81
2021/10/18 01:23:11;;;;;;;0.47;0.47;;;3.40;42.10;;;;;;4806539;28;20196;-81
2021/10/18 01:25:34;;;;;;;0.30;0.30;;;3.30;42.30;;;;;;4840594;28;20190;-80
2021/10/18 01:27:57;;;;;;;0.33;0.33;;;3.40;41.80;;;;;;4840570;28;20182;-80
2021/10/18 01:30:20;;;;;;;0.30;0.30;;;3.20;42.20;;;;;;4823203;28;20207;-82
2021/10/18 01:32:43;;;;;;;0.30;0.30;;;3.40;42.20;;;;;;4840774;28;20585;-80
2021/10/18 01:35:08;;;;;;;0.40;0.40;;;3.30;42.50;;;;;;4840105;28;20606;-80
2021/10/18 01:37:32;;;;;;;0.30;0.30;;;3.20;42.30;;;;;;4817980;28;20190;-80
2021/10/18 01:39:54;;;;;;;0.20;0.20;;;3.10;42.50;;;;;;4822891;28;20208;-80
2021/10/18 01:42:17;;;;;;;0.30;0.30;;;;;;;;;;4839094;28;20252;-79
2021/10/18 01:44:40;;;;;;;0.33;0.33;;;;;;;;;;4823583;28;20206;-79
2021/10/18 01:47:03;;;;;;;0.40;0.40;;;;;;;;;;4840443;28;20563;-81
2021/10/18 01:49:25;;;;;;;0.40;0.40;;;3.40;41.30;;;;;;4839991;28;20715;-79
2021/10/18 01:51:48;;;;;;;0.20;0.20;;;3.80;40.90;;;;;;4840732;28;20526;-84
2021/10/18 01:54:12;;;;;;;0.50;0.50;;;3.90;40.70;;;;;;4822547;28;20270;-79
2021/10/18 01:56:34;;;;;;;0.30;0.30;;;4.00;40.50;;;;;;4822448;28;20250;-80
2021/10/18 01:58:57;;;;;;;0.23;0.23;;;4.20;40.90;;;;;;4822545;28;20219;-80
2021/10/18 02:01:19;;;;;;;0.20;0.20;;;4.10;40.40;;;;;;4836673;28;20190;-80
2021/10/18 02:03:45;;;;;;;0.30;0.30;;;4.20;40.40;;;;;;4819610;28;20246;-81
2021/10/18 02:06:10;;;;;;;0.40;0.40;;;4.50;40.40;;;;;;4803827;28;20566;-80
2021/10/18 02:08:34;;;;;;;0.30;0.30;;;4.50;40.30;;;;;;4830022;28;20621;-82
2021/10/18 02:10:58;;;;;;;0.40;0.40;;;4.60;41.00;;;;;;4822525;28;20584;-79
2021/10/18 02:13:21;;;;;;;0.30;0.30;;;4.20;40.40;;;;;;4822532;28;20203;-79
2021/10/18 02:15:43;;;;;;;0.30;0.30;;;4.50;41.00;;;;;;4840160;28;20191;-79
2021/10/18 02:18:06;;;;;;;0.40;0.40;;;;;;;;;;4821161;28;20195;-80
2021/10/18 02:20:29;;;;;;;0.20;0.20;;;5.00;41.30;;;;;;4832554;28;20572;-80
2021/10/18 02:22:51;;;;;;;0.33;0.33;;;5.10;41.50;;;;;;4822455;28;20250;-80
2021/10/18 02:25:14;;;;;;;0.40;0.40;;;;;;;;;;4821545;28;20250;-79
2021/10/18 02:27:38;;;;;;;0.30;0.30;;;5.90;42.70;;;;;;4822837;28;20204;-80
2021/10/18 02:30:03;;;;;;;0.50;0.50;;;;;;;;;;4839664;28;20187;-81
2021/10/18 02:32:25;;;;;;;0.33;0.33;;;6.00;43.20;;;;;;4806377;28;20217;-80
2021/10/18 02:34:48;;;;;;;0.40;0.40;;;5.40;43.00;;;;;;4839495;28;20272;-83
2021/10/18 02:37:10;;;;;;;0.43;0.43;;;5.30;42.70;;;;;;4839315;28;20613;-79
2021/10/18 02:39:33;;;;;;;0.20;0.20;;;5.30;42.70;;;;;;4821883;28;20195;-84
2021/10/18 02:41:55;;;;;;;0.30;0.30;;;5.30;43.40;;;;;;4822232;28;20190;-80
2021/10/18 02:44:19;;;;;;;0.30;0.30;;;5.70;43.50;;;;;;4839403;28;20237;-84
2021/10/18 02:46:42;;;;;;;0.30;0.30;;;5.50;43.80;;;;;;4805432;28;20242;-79
2021/10/18 02:49:05;;;;;;;0.40;0.40;;;;;;;;;;4821447;28;20677;-79
2021/10/18 02:51:27;;;;;;;0.33;0.33;;;5.60;43.80;;;;;;4822221;28;20266;-79
2021/10/18 02:53:50;;;;;;;0.30;0.30;;;;;;;;;;4821348;28;20223;-81
2021/10/18 02:56:13;;;;;;;0.47;0.47;;;6.00;43.70;;;;;;4804899;28;20200;-79
2021/10/18 02:58:35;;;;;;;0.30;0.30;;;5.40;43.60;;;;;;4839460;28;20214;-83
2021/10/18 03:00:59;;;;;;;0.33;0.33;;;6.00;44.30;;;;;;4819407;28;20270;-80
2021/10/18 03:03:22;;;;;;;0.40;0.40;;;6.00;43.90;;;;;;4804791;28;20207;-79
2021/10/18 03:05:45;;;;;;;0.40;0.40;;;6.00;44.30;;;;;;4805039;28;20195;-80
2021/10/18 03:08:07;;;;;;;0.40;0.40;;;6.10;44.70;;;;;;4820787;28;20277;-79
2021/10/18 03:10:31;;;;;;;0.33;0.33;;;6.00;44.40;;;;;;4821366;28;20319;-79
2021/10/18 03:12:54;;;;;;;0.30;0.30;;;6.00;44.90;;;;;;4805040;28;20196;-79
2021/10/18 03:15:17;;;;;;;0.30;0.30;;;;;;;;;;4821243;28;20218;-80
2021/10/18 03:17:43;;;;;;;0.40;0.40;;;6.10;44.90;;;;;;4837845;28;20720;-80
2021/10/18 03:20:08;;;;;;;0.50;0.50;;;6.40;44.50;;;;;;4837164;28;20261;-81
2021/10/18 03:22:30;;;;;;;0.30;0.30;;;6.70;44.80;;;;;;4820230;28;20195;-80
2021/10/18 03:24:53;;;;;;;0.30;0.30;;;;;;;;;;4838741;28;20182;-81
2021/10/18 03:27:16;;;;;;;0.50;0.50;;;6.10;45.00;;;;;;4820947;28;20203;-81
2021/10/18 03:29:40;;;;;;;0.30;0.30;;;6.40;44.60;;;;;;4806259;28;20200;-84
2021/10/18 03:32:02;;;;;;;0.30;0.30;;;6.10;44.60;;;;;;4822791;28;20242;-88
2021/10/18 03:34:26;;;;;;;0.33;0.33;;;6.40;44.80;;;;;;4814351;28;20238;-86
2021/10/18 03:36:49;;;;;;;0.40;0.40;;;6.20;44.70;;;;;;4821943;28;20179;-86
2021/10/18 03:39:12;;;;;;;0.57;0.57;;;6.20;44.70;;;;;;4805450;28;20218;-86
2021/10/18 03:41:34;;;;;;;0.30;0.30;;;6.10;44.70;;;;;;4838264;28;20187;-84
2021/10/18 03:43:57;;;;;;;0.30;0.30;;;;;;;;;;4822139;28;20609;-86
2021/10/18 03:46:20;;;;;;;0.30;0.30;;;6.30;45.40;;;;;;4838312;28;20594;-84
2021/10/18 03:48:42;;;;;;;0.53;0.40;;;6.40;45.20;;;;;;4839263;28;20206;-85
2021/10/18 03:51:06;;;;;;;0.50;0.50;;;6.40;45.40;;;;;;4804987;28;20191;-87
2021/10/18 03:53:29;;;;;;;0.40;0.40;;;;;;;;;;4838436;28;20187;-86
2021/10/18 03:55:52;;;;;;;0.43;0.43;;;;;;;;;;4839181;28;20218;-85
2021/10/18 03:58:14;;;;;;;0.57;0.57;;;6.30;45.60;;;;;;4821341;28;20286;-85
2021/10/18 04:00:37;;;;;;;1.57;1.47;;;6.70;45.30;;;;;;4803497;28;20773;-85
2021/10/18 04:03:00;;;;;;;0.30;0.30;;;;;;;;;;4821350;28;20715;-80
2021/10/18 04:05:24;;;;;;;0.37;0.37;;;6.70;45.30;;;;;;4837198;28;20194;-83
2021/10/18 04:07:49;;;;;;;0.30;0.30;;;7.40;45.40;;;;;;4838486;28;20223;-85
2021/10/18 04:10:11;;;;;;;0.40;0.40;;;6.60;45.20;;;;;;4838777;28;20190;-85
2021/10/18 04:12:54;;;;;;;0.30;0.30;;;6.50;45.20;;;;;;4839063;28;20185;-85
2021/10/18 04:15:37;;;;;;;0.40;0.40;;;6.50;45.20;;;;;;4822894;28;20694;-87
2021/10/18 04:18:21;;;;;;;0.30;0.30;;;;;;;;;;4824150;28;20183;-83
2021/10/18 04:21:05;;;;;;;0.60;0.60;;;6.80;45.40;;;;;;4838008;28;20215;-84
2021/10/18 04:23:49;;;;;;;0.40;0.40;;;6.60;45.30;;;;;;4835641;28;20207;-85
2021/10/18 04:26:15;;;;;;;0.50;0.50;;;6.60;45.40;;;;;;4804622;28;20199;-84
2021/10/18 04:28:37;;;;;;;0.30;0.30;;;6.70;45.50;;;;;;4838950;28;20210;-87
2021/10/18 04:31:00;;;;;;;0.30;0.30;;;;;;;;;;4821336;28;20207;-81
2021/10/18 04:33:23;;;;;;;0.33;0.33;;;7.10;46.10;;;;;;4821378;28;20199;-85
2021/10/18 04:35:45;;;;;;;0.30;0.30;;;7.00;45.60;;;;;;4821838;28;20211;-85
2021/10/18 04:38:08;;;;;;;0.50;0.50;;;6.90;46.20;;;;;;4804535;28;20196;-83
2021/10/18 04:40:32;;;;;;;0.30;0.30;;;6.80;45.60;;;;;;4813841;28;20191;-87
2021/10/18 04:42:55;;;;;;;0.20;0.20;;;6.90;45.60;;;;;;4804786;28;20247;-85
2021/10/18 04:45:18;;;;;;;0.33;0.33;;;;;;;;;;4804289;28;20200;-84
2021/10/18 04:47:42;;;;;;;0.33;0.33;;;6.60;46.10;;;;;;4821293;28;20204;-85
2021/10/18 04:50:06;;;;;;;0.50;0.50;;;7.00;46.20;;;;;;4820446;28;20183;-82
2021/10/18 04:52:28;;;;;;;0.40;0.40;;;6.80;45.60;;;;;;4805325;28;20273;-85
2021/10/18 04:54:51;;;;;;;0.40;0.40;;;6.60;45.50;;;;;;4820396;28;20310;-84
2021/10/18 04:57:15;;;;;;;0.60;0.60;;;6.90;46.10;;;;;;4803315;28;20191;-83
2021/10/18 04:59:38;;;;;;;0.30;0.30;;;7.10;45.60;;;;;;4819752;28;20622;-85
2021/10/18 05:02:00;;;;;;;0.30;0.30;;;7.00;45.90;;;;;;4801185;28;20188;-82
2021/10/18 05:04:23;;;;;;;0.30;0.30;;;;;;;;;;4820094;28;20208;-83
2021/10/18 05:06:45;;;;;;;0.40;0.40;;;7.20;45.50;;;;;;4803517;28;20188;-82
2021/10/18 05:09:08;;;;;;;0.50;0.50;;;7.10;45.50;;;;;;4819820;28;20249;-83
2021/10/18 05:11:31;;;;;;;0.33;0.33;;;6.80;45.40;;;;;;4803640;28;20187;-82
2021/10/18 05:13:55;;;;;;;0.33;0.33;;;7.10;45.80;;;;;;4820090;28;20194;-80
2021/10/18 05:16:18;;;;;;;0.40;0.40;;;7.20;45.50;;;;;;4836748;28;20741;-82
2021/10/18 05:18:40;;;;;;;0.30;0.30;;;6.80;45.70;;;;;;4803341;28;20231;-81
2021/10/18 05:21:06;;;;;;;0.43;0.43;;;7.00;45.90;;;;;;4802975;28;20196;-81
2021/10/18 05:23:28;;;;;;;0.30;0.30;;;7.40;45.50;;;;;;4835587;28;20695;-82
2021/10/18 05:25:51;;;;;;;0.50;0.50;;;;;;;;;;4803810;28;20203;-81
2021/10/18 05:28:14;;;;;;;0.40;0.40;;;;;;;;;;4835962;28;20187;-80
2021/10/18 05:30:38;;;;;;;0.30;0.30;;;7.00;45.60;;;;;;4834197;28;20195;-82
2021/10/18 05:33:01;;;;;;;0.20;0.20;;;;;;;;;;4836374;28;20649;-79
2021/10/18 05:35:24;;;;;;;0.30;0.30;;;;;;;;;;4835502;28;20238;-83
2021/10/18 05:37:48;;;;;;;0.40;0.40;;;7.10;45.20;;;;;;4819628;28;20200;-83
2021/10/18 05:40:12;;;;;;;0.57;0.57;;;7.10;45.70;;;;;;4818859;28;20195;-84
2021/10/18 05:42:35;;;;;;;0.40;0.40;;;;;;;;;;4836869;28;20233;-79
2021/10/18 05:44:57;;;;;;;0.30;0.30;;;7.00;45.10;;;;;;4836040;28;20194;-76
2021/10/18 05:47:21;;;;;;;0.40;0.40;;;7.10;45.10;;;;;;4803699;28;20315;-87
2021/10/18 05:49:44;;;;;;;0.27;0.27;;;6.70;45.10;;;;;;4820440;28;20199;-85
2021/10/18 05:52:07;;;;;;;0.50;0.50;;;7.40;45.10;;;;;;4838201;28;20249;-87
2021/10/18 05:54:29;;;;;;;0.23;0.23;;;;;;;;;;4824565;28;20723;-87
2021/10/18 05:56:52;;;;;;;0.43;0.43;;;;;;;;;;4824229;28;20282;-83
2021/10/18 05:59:15;;;;;;;0.40;0.40;;;7.40;45.20;;;;;;4806310;28;20231;-80
2021/10/18 06:01:37;;;;;;;0.30;0.30;;;7.00;44.90;;;;;;4839077;28;20237;-87
2021/10/18 06:04:03;;;;;;;0.30;0.30;;;7.50;45.30;;;;;;4840111;28;20252;-84
2021/10/18 06:06:26;;;;;;;0.30;0.30;;;7.40;45.00;;;;;;4841906;28;20240;-87
2021/10/18 06:08:49;;;;;;;0.40;0.40;;;;;;;;;;4824287;28;20249;-83
2021/10/18 06:11:11;;;;;;;0.37;0.37;;;7.40;45.40;;;;;;4824273;28;20191;-84
2021/10/18 06:13:35;;;;;;;0.30;0.30;;;7.50;45.50;;;;;;4840208;28;20240;-86
2021/10/18 06:15:57;;;;;;;0.30;0.30;;;7.60;45.30;;;;;;4807699;28;20273;-84
2021/10/18 06:18:20;;;;;;;0.40;0.40;;;7.60;45.00;;;;;;4791010;28;20203;-86
2021/10/18 06:20:46;;;;;;;0.33;0.33;;;7.80;45.00;;;;;;4823609;28;20200;-84
2021/10/18 06:23:09;;;;;;;0.50;0.50;;;;;;;;;;4822622;28;20739;-81
2021/10/18 06:25:32;;;;;;;0.40;0.40;;;7.50;45.40;;;;;;4823739;28;20207;-85
2021/10/18 06:27:55;;;;;;;0.40;0.40;;;7.60;45.20;;;;;;4824141;28;20187;-76
2021/10/18 06:30:18;;;;;;;0.30;0.30;;;6.80;45.10;;;;;;4806454;28;20306;-78
2021/10/18 06:32:41;;;;;;;0.20;0.20;;;;;;;;;;4822605;28;20408;-77
2021/10/18 06:35:04;;;;;;;0.33;0.33;;;7.60;45.00;;;;;;4806407;28;20272;-82
2021/10/18 06:37:31;;;;;;;0.30;0.30;;;7.80;45.60;;;;;;4806044;28;20617;-77
2021/10/18 06:39:53;;;;;;;0.23;0.23;;;8.10;45.50;;;;;;4837190;28;20595;-78
2021/10/18 06:42:16;;;;;;;0.50;0.50;;;8.00;45.60;;;;;;4839033;28;20190;-79
2021/10/18 06:44:40;;;;;;;0.40;0.40;;;8.10;45.50;;;;;;4805711;28;20193;-79
2021/10/18 06:47:03;;;;;;;0.37;0.37;;;7.60;45.10;;;;;;4805323;28;20180;-87
2021/10/18 06:49:26;;;;;;;0.30;0.30;;;8.00;45.20;;;;;;4821764;28;20299;-88
2021/10/18 06:51:51;;;;;;;0.30;0.30;;;8.50;45.40;;;;;;4839356;28;20245;-79
2021/10/18 06:54:15;;;;;;;0.40;0.40;;;8.20;45.90;;;;;;4805397;28;20352;-81
2021/10/18 06:56:43;;;;;;;0.37;0.37;;;8.30;45.50;;;;;;4839215;28;20229;-78
2021/10/18 06:59:06;;;;;;;0.63;0.57;;;;;;;;;;4821773;28;20227;-80
2021/10/18 07:01:29;;;;;;;0.73;0.47;;;8.60;45.70;;;;;;4812592;28;20266;-81
2021/10/18 07:03:51;;;;;;;0.40;0.40;;;8.00;45.60;;;;;;4821215;28;20222;-83
2021/10/18 07:06:14;;;;;;;0.60;0.60;;;8.40;45.40;;;;;;4804431;28;20258;-80
2021/10/18 07:08:36;;;;;;;0.30;0.30;;;8.40;45.80;;;;;;4819035;28;20307;-79
2021/10/18 07:11:00;;;;;;;0.30;0.30;;;8.60;45.50;;;;;;4787090;28;20200;-78
2021/10/18 07:13:23;;;;;;;0.40;0.40;;;;;;;;;;4817622;28;20666;-76
2021/10/18 07:15:46;;;;;;;0.40;0.40;;;8.80;45.50;;;;;;4818080;28;20223;-79
2021/10/18 07:18:09;;;;;;;0.50;0.50;;;8.50;45.90;;;;;;4802704;28;20204;-81
2021/10/18 07:20:32;;;;;;;0.80;0.80;;;8.90;45.60;;;;;;4806662;28;20319;-83
2021/10/18 07:22:58;;;;;;;0.93;0.90;;;8.70;45.80;;;;;;4808292;28;20195;-81
2021/10/18 07:25:21;;;;;;;3.53;3.27;;;;;;;;;;4809506;28;20241;-80
2021/10/18 07:27:45;;;;;;;0.30;0.30;;;8.70;46.10;;;;;;4821076;28;20204;-80
2021/10/18 07:30:09;;;;;;;1.13;1.10;;;8.90;46.20;;;;;;4792441;28;20251;-81
2021/10/18 07:32:32;;;;;;;0.50;0.50;;;9.40;45.90;;;;;;4811889;28;20203;-79
2021/10/18 07:34:57;;;;;;;0.40;0.40;;;;;;;;;;4817802;28;20543;-81
2021/10/18 07:37:25;;;;;;;0.80;0.80;;;8.70;45.90;;;;;;4818395;28;20215;-79
2021/10/18 07:39:48;;;;;;;0.70;0.70;;;;;;;;;;4817614;28;20266;-83
2021/10/18 07:42:14;;;;;;;0.70;0.70;;;;;;;;;;4799464;28;20219;-83
2021/10/18 07:44:38;;;;;;;0.50;0.50;;;8.60;45.50;;;;;;4819248;28;20222;-81
2021/10/18 07:47:01;;;;;;;0.60;0.60;;;;;;;;;;4816603;28;20619;-84
2021/10/18 07:49:24;;;;;;;0.53;0.53;;;8.90;45.50;;;;;;4817647;28;20226;-84
2021/10/18 07:51:47;;;;;;;0.90;0.90;;;8.80;45.50;;;;;;4816301;28;20183;-82
2021/10/18 07:54:10;;;;;;;0.87;0.87;;;8.30;45.80;;;;;;4817281;28;20192;-86
2021/10/18 07:56:33;;;;;;;0.53;0.53;;;9.90;46.30;;;;;;4817840;28;20563;-83
2021/10/18 07:58:56;;;;;;;0.80;0.80;;;;;;;;;;4818681;28;20204;-89
2021/10/18 08:01:21;;;;;;;0.93;0.93;;;8.90;46.00;;;;;;4814753;28;20207;-84
2021/10/18 08:03:44;;;;;;;0.40;0.40;;;;;;;;;;4834060;28;20240;-80
2021/10/18 08:06:06;;;;;;;0.73;0.73;;;9.30;45.60;;;;;;4833826;28;20621;-81
2021/10/18 08:08:32;;;;;;;0.50;0.50;;;;;;;;;;4827243;28;20231;-79
2021/10/18 08:10:55;;;;;;;0.77;0.77;;;;;;;;;;4819042;28;20183;-80
2021/10/18 08:13:18;;;;;;;0.63;0.63;;;9.20;45.70;;;;;;4818822;28;20204;-85
2021/10/18 08:15:41;;;;;;;0.50;0.50;;;;;;;;;;4819396;28;20254;-78
2021/10/18 08:18:05;;;;;;;0.87;0.87;;;9.10;46.10;;;;;;4819121;28;20577;-81
2021/10/18 08:20:27;;;;;;;1.27;1.17;;;9.00;45.90;;;;;;4817958;28;20567;-80
2021/10/18 08:22:51;;;;;;;0.70;0.70;;;9.20;46.20;;;;;;4818498;28;20670;-80
2021/10/18 08:25:14;;;;;;;0.73;0.73;;;9.40;45.70;;;;;;4813127;28;20203;-80
2021/10/18 08:27:37;;;;;;;0.50;0.50;;;9.30;45.70;;;;;;4819074;28;20697;-79
2021/10/18 08:30:03;;;;;;;0.77;0.77;;;10.00;46.00;;;;;;4836627;28;20191;-81
2021/10/18 08:32:26;;;;;;;0.70;0.70;;;;;;;;;;4815564;28;20211;-80
2021/10/18 08:34:50;;;;;;;0.73;0.73;;;9.70;45.90;;;;;;4819476;28;20258;-80
2021/10/18 08:37:13;;;;;;;0.83;0.83;;;9.10;46.20;;;;;;4803009;28;20227;-81
2021/10/18 08:42:19;;;;;;;0.80;0.80;;;9.40;46.40;;;;;;4834778;28;20190;-81
2021/10/18 08:44:42;;;;;;;0.60;0.60;;;;;;;;;;4820312;28;20203;-80
2021/10/18 08:47:05;;;;;;;1.10;1.00;;;9.40;46.00;;;;;;4836530;28;20237;-83
2021/10/18 08:49:28;;;;;;;0.80;0.73;;;9.60;46.10;;;;;;4819859;28;20250;-79
2021/10/18 08:51:52;;;;;;;0.70;0.70;;;9.70;46.20;;;;;;4802197;28;20246;-79
2021/10/18 08:54:16;;;;;;;0.90;0.90;;;9.70;46.60;;;;;;4818560;28;20203;-79
2021/10/18 08:56:39;;;;;;;0.80;0.80;;;10.00;46.10;;;;;;4802692;28;20396;-86
2021/10/18 08:59:02;;;;;;;0.60;0.60;;;9.60;46.20;;;;;;4802928;28;20267;-83
2021/10/18 09:01:40;;;;;;;0.60;0.60;;;9.80;46.70;;;;;;4800236;28;20235;-82
2021/10/18 09:04:11;;;;;;;0.63;0.63;;;10.00;46.50;;;;;;4835781;28;20228;-79
2021/10/18 09:06:34;;;;;;;0.40;0.40;;;9.30;46.10;;;;;;4813340;28;20251;-86
2021/10/18 09:09:04;;;;;;;0.60;0.60;;;10.20;46.60;;;;;;4836687;28;20670;-77
2021/10/18 09:11:29;;;;;;;0.50;0.50;;;9.90;46.40;;;;;;4836381;28;20498;-84
2021/10/18 09:13:59;;;;;;;0.57;0.57;;;10.40;46.30;;;;;;4837335;28;20644;-87
2021/10/18 09:16:24;;;;;;;0.60;0.60;;;10.70;46.60;;;;;;4836173;28;20721;-80
2021/10/18 09:18:58;;;;;;;0.70;0.70;;;10.40;46.90;;;;;;4802123;28;20196;-79
2021/10/18 09:21:28;;;;;;;0.50;0.50;;;10.50;47.00;;;;;;4818253;28;20206;-84
2021/10/18 09:23:51;;;;;;;0.80;0.80;;;;;;;;;;4817155;28;20868;-78
2021/10/18 09:26:16;;;;;;;1.13;1.03;;;11.00;46.70;;;;;;4835798;28;20194;-82
2021/10/18 09:28:39;;;;;;;0.70;0.70;;;10.40;47.10;;;;;;4805564;28;20595;-83
2021/10/18 09:31:02;;;;;;;0.53;0.53;;;10.90;47.10;;;;;;4837926;28;20187;-86
2021/10/18 09:33:28;;;;;;;0.60;0.60;;;10.80;47.40;;;;;;4821595;28;20660;-77
2021/10/18 09:35:52;;;;;;;0.70;0.70;;;10.40;46.70;;;;;;4805974;28;20184;-81
2021/10/18 09:38:17;;;;;;;0.83;0.83;;;11.30;47.60;;;;;;4805629;28;20212;-77
2021/10/18 09:40:40;;;;;;;0.80;0.80;;;11.20;47.00;;;;;;4838316;28;20198;-81
2021/10/18 09:43:08;;;;;;;0.60;0.60;;;10.70;46.90;;;;;;4839811;28;20190;-81
2021/10/18 09:45:31;;;;;;;0.90;0.90;;;11.80;47.70;;;;;;4823196;28;20625;-82
2021/10/18 10:54:01;;;;;;;0.70;0.70;;;11.10;47.20;;;;;;4817491;28;20195;-75
2021/10/18 10:56:30;;;;;;;0.67;0.67;;;11.00;47.50;;;;;;4837396;28;20183;-76
2021/10/18 10:59:00;;;;;;;0.87;0.87;;;11.00;47.50;;;;;;4837746;28;20625;-76
2021/10/18 11:01:52;;;;;;;0.67;0.67;;;11.00;47.60;;;;;;4785805;28;20257;-76
2021/10/18 11:04:48;;;;;;;0.90;0.90;;;11.30;47.40;;;;;;4804161;28;20869;-76
2021/10/18 11:07:15;;;;;;;0.80;0.80;;;11.10;47.40;;;;;;4835009;28;20279;-76
2021/10/18 11:09:39;;;;;;;0.70;0.70;;;11.30;47.30;;;;;;4837464;28;20230;-77
2021/10/18 11:12:02;;;;;;;0.50;0.50;;;;;;;;;;4819810;28;20219;-77
2021/10/18 11:14:26;;;;;;;0.60;0.60;;;11.10;47.00;;;;;;4837984;28;20264;-77
2021/10/18 11:16:48;;;;;;;1.00;1.00;;;10.70;47.30;;;;;;4837654;28;20256;-77
2021/10/18 11:19:12;;;;;;;0.83;0.83;;;10.60;47.10;;;;;;4819466;28;20207;-77
2021/10/18 11:21:36;;;;;;;0.97;0.90;;;10.80;47.30;;;;;;4818226;28;20191;-77
2021/10/18 11:24:04;;;;;;;0.90;0.90;;;11.20;47.10;;;;;;4825269;28;20290;-77
2021/10/18 11:26:28;;;;;;;1.03;0.90;;;11.00;47.00;;;;;;4818990;28;20787;-78
2021/10/18 11:28:53;;;;;;;0.70;0.70;;;11.10;47.60;;;;;;4816488;28;20243;-78
2021/10/18 11:31:17;;;;;;;0.70;0.70;;;11.50;47.20;;;;;;4817677;28;20191;-79
2021/10/18 11:33:40;;;;;;;0.93;0.87;;;;;;;;;;4839214;28;20661;-79
2021/10/18 11:36:15;;;;;;;0.57;0.57;;;11.20;47.60;;;;;;4837515;28;20187;-77
2021/10/18 11:38:40;;;;;;;0.90;0.90;;;11.00;47.20;;;;;;4803112;28;20713;-78
2021/10/18 11:41:03;;;;;;;1.03;1.00;;;;;;;;;;4818748;28;20203;-81
2021/10/18 11:43:30;;;;;;;0.50;0.50;;;11.20;47.60;;;;;;4804259;28;20662;-79
2021/10/18 11:45:54;;;;;;;0.60;0.60;;;10.90;47.00;;;;;;4838009;28;20217;-78
2021/10/18 11:48:20;;;;;;;0.60;0.60;;;10.90;47.00;;;;;;4808467;28;20653;-78
2021/10/18 11:50:44;;;;;;;0.43;0.43;;;11.00;47.20;;;;;;4780711;28;20872;-78
2021/10/18 11:53:13;;;;;;;0.83;0.83;;;11.00;47.50;;;;;;4818642;28;20321;-78
2021/10/18 11:55:40;;;;;;;0.40;0.40;;;11.00;47.30;;;;;;4813722;28;20657;-78
2021/10/18 11:58:05;;;;;;;0.67;0.67;;;11.00;47.40;;;;;;4820017;28;20229;-78
2021/10/18 12:00:31;;;;;;;2.90;2.60;;;10.90;47.40;;;;;;4833938;28;20215;-80
2021/10/18 12:02:59;;;;;;;0.57;0.57;;;;;;;;;;4761861;28;20638;-78
2021/10/18 12:05:23;;;;;;;0.50;0.50;;;10.60;47.00;;;;;;4835798;28;20661;-78
2021/10/18 12:07:48;;;;;;;0.47;0.47;;;11.20;46.90;;;;;;4803402;28;20251;-80
2021/10/18 12:10:16;;;;;;;1.30;1.20;;;10.90;47.30;;;;;;4818722;28;20227;-80
2021/10/18 12:12:40;;;;;;;0.50;0.50;;;10.90;47.30;;;;;;4811138;28;20196;-78
2021/10/18 12:15:03;;;;;;;0.60;0.60;;;;;;;;;;4800536;28;20714;-79
2021/10/18 12:17:26;;;;;;;0.67;0.67;;;11.00;46.90;;;;;;4819622;28;20207;-78
2021/10/18 12:19:49;;;;;;;0.70;0.70;;;;;;;;;;4836836;28;20186;-81
2021/10/18 12:22:11;;;;;;;0.90;0.90;;;11.10;47.10;;;;;;4834760;28;20191;-79
2021/10/18 12:24:35;;;;;;;0.60;0.60;;;11.10;46.90;;;;;;4818660;28;20755;-78
2021/10/18 12:26:58;;;;;;;0.57;0.57;;;;;;;;;;4819672;28;20270;-78
2021/10/18 12:29:23;;;;;;;0.63;0.63;;;11.10;47.40;;;;;;4818602;28;21027;-80
2021/10/18 12:31:47;;;;;;;1.13;1.03;;;11.10;47.50;;;;;;4834875;28;20190;-85
2021/10/18 12:34:26;;;;;;;0.70;0.70;;;11.10;47.00;;;;;;4819190;28;20199;-85
2021/10/18 12:36:56;;;;;;;0.70;0.70;;;10.90;46.90;;;;;;4820149;28;20191;-85
2021/10/18 12:39:43;;;;;;;0.73;0.73;;;10.80;47.40;;;;;;4817054;28;20227;-83
2021/10/18 12:42:07;;;;;;;0.87;0.87;;;11.00;47.40;;;;;;4818075;28;20238;-81
2021/10/18 12:44:32;;;;;;;0.40;0.40;;;11.00;47.40;;;;;;4836013;28;20256;-85
2021/10/18 12:46:55;;;;;;;0.50;0.50;;;;;;;;;;4837315;28;20471;-83
2021/10/18 12:49:28;;;;;;;1.00;0.93;;;11.30;47.00;;;;;;4836853;28;20187;-86
2021/10/18 12:51:51;;;;;;;0.50;0.50;;;;;;;;;;4834581;28;20194;-81
2021/10/18 12:54:26;;;;;;;1.03;1.00;;;10.80;46.70;;;;;;4835723;28;20297;-80
2021/10/18 12:57:09;;;;;;;0.90;0.90;;;11.40;47.20;;;;;;4832927;28;20256;-87
2021/10/18 12:59:35;;;;;;;0.50;0.50;;;11.20;47.40;;;;;;4819895;28;20223;-80
2021/10/18 13:02:26;;;;;;;0.67;0.67;;;11.30;47.30;;;;;;4834743;28;20683;-83
2021/10/18 13:05:25;;;;;;;0.53;0.53;;;11.30;47.50;;;;;;4820036;28;20207;-82
2021/10/18 13:07:56;;;;;;;0.70;0.70;;;11.30;47.50;;;;;;4820363;28;20227;-83
2021/10/18 13:10:20;;;;;;;0.60;0.60;;;11.30;47.50;;;;;;4819896;28;20188;-80
2021/10/18 13:12:44;;;;;;;0.50;0.50;;;11.80;47.70;;;;;;4836557;28;20198;-85
2021/10/18 13:15:12;;;;;;;1.23;1.13;;;11.30;47.50;;;;;;4819802;28;20203;-82
2021/10/18 13:17:35;;;;;;;0.40;0.40;;;;;;;;;;4837644;28;20636;-82
2021/10/18 13:19:57;;;;;;;0.60;0.60;;;11.50;47.20;;;;;;4837668;28;20264;-84
2021/10/18 13:22:20;;;;;;;0.53;0.47;;;;;;;;;;4837798;28;20435;-86
2021/10/18 13:24:43;;;;;;;0.33;0.33;;;11.20;46.80;;;;;;4837223;28;20260;-82
2021/10/18 13:27:06;;;;;;;0.80;0.80;;;;;;;;;;4819576;28;20203;-87
2021/10/18 13:29:29;;;;;;;0.47;0.47;;;;;;;;;;4820213;28;20246;-85
2021/10/18 13:31:54;;;;;;;0.60;0.60;;;11.10;46.80;;;;;;4819628;28;20199;-85
2021/10/18 13:34:17;;;;;;;0.70;0.70;;;10.70;46.70;;;;;;4818660;28;20712;-86
2021/10/18 13:36:40;;;;;;;0.50;0.50;;;;;;;;;;4813434;28;20269;-84
2021/10/18 13:39:03;;;;;;;0.83;0.83;;;10.90;46.70;;;;;;4836653;28;20253;-83
2021/10/18 13:41:25;;;;;;;0.50;0.50;;;10.90;47.20;;;;;;4818930;28;20215;-82
2021/10/18 13:43:48;;;;;;;0.93;0.93;;;;;;;;;;4835456;28;20191;-82
2021/10/18 13:46:11;;;;;;;0.70;0.70;;;;;;;;;;4821766;28;20199;-87
2021/10/18 13:48:35;;;;;;;0.50;0.50;;;11.30;47.40;;;;;;4837219;28;20241;-82
2021/10/18 13:50:58;;;;;;;0.70;0.70;;;;;;;;;;4819251;28;20230;-83
2021/10/18 13:53:21;;;;;;;0.60;0.60;;;;;;;;;;4819839;28;20283;-79
2021/10/18 13:55:47;;;;;;;0.47;0.47;;;11.70;47.60;;;;;;4836190;28;20594;-89
2021/10/18 13:58:10;;;;;;;1.20;1.00;;;;;;;;;;4815649;28;20561;-81
2021/10/18 14:00:33;;;;;;;3.83;3.27;;;;;;;;;;4797853;28;20192;-82
2021/10/18 14:02:57;;;;;;;0.57;0.57;;;;;;;;;;4818088;28;20226;-82
2021/10/18 14:05:21;;;;;;;0.87;0.87;;;11.90;48.00;;;;;;4800146;28;20629;-81
2021/10/18 14:07:44;;;;;;;0.83;0.77;;;;;;;;;;4817447;28;20249;-82
2021/10/18 14:10:08;;;;;;;1.20;1.10;;;12.10;47.60;;;;;;4800327;28;20212;-82